Time;durP1;ratioP1;P1;durP2;ratioP2;P2;SDS_P1;SDS_P2;PMS_P1;PMS_P2;Temp;Humidity;BMP_temperature;BMP_pressure;BME280_temperature;BME280_humidity;BME280_pressure;Samples;Min_cycle;Max_cycle;Signal;HPM_P1;HPM_P2
2021/08/09 00:02:25;;;;;;;1.68;0.63;;;;;;;17.19;84.80;96916.75;125985;1093;2138785;-84
2021/08/09 00:04:57;;;;;;;3.30;0.80;;;;;;;17.27;84.53;96917.85;127449;1093;239547;-84
2021/08/09 00:07:28;;;;;;;1.15;0.70;;;;;;;17.13;84.11;96910.73;127988;1093;26103;-85
2021/08/09 00:10:00;;;;;;;2.38;0.90;;;;;;;16.99;84.35;96909.30;128000;1093;25572;-84
2021/08/09 00:12:31;;;;;;;1.80;0.85;;;;;;;16.91;84.43;96897.47;127957;1093;25627;-84
2021/08/09 00:15:02;;;;;;;1.33;0.83;;;;;;;16.84;84.35;96887.20;127954;1093;26975;-85
2021/08/09 00:17:34;;;;;;;0.73;0.55;;;;;;;16.88;84.41;96866.73;128031;1093;25396;-84
2021/08/09 00:20:06;;;;;;;1.33;0.80;;;;;;;16.87;84.43;96881.22;128071;1093;24249;-85
2021/08/09 00:22:37;;;;;;;0.90;0.70;;;;;;;16.79;84.53;96894.60;128040;1090;28791;-85
2021/08/09 00:25:10;;;;;;;3.23;0.73;;;;;;;16.76;84.51;96892.55;128017;1090;28927;-85
2021/08/09 00:27:42;;;;;;;1.87;0.90;;;;;;;16.68;84.20;96872.67;128041;1092;26652;-85
2021/08/09 00:30:14;;;;;;;2.78;0.70;;;;;;;16.53;84.26;96859.69;127959;1092;26166;-85
2021/08/09 00:32:46;;;;;;;1.75;0.70;;;;;;;16.55;85.05;96842.21;128027;1093;26996;-85
2021/08/09 00:35:17;;;;;;;1.13;0.80;;;;;;;16.72;85.38;96816.61;128046;1093;25935;-85
2021/08/09 00:37:48;;;;;;;0.85;0.68;;;;;;;16.81;85.42;96830.81;127991;1093;24795;-85
2021/08/09 00:40:19;;;;;;;1.98;0.85;;;;;;;16.71;85.48;96849.84;127995;1093;31044;-84
2021/08/09 00:42:51;;;;;;;1.00;0.68;;;;;;;16.58;85.66;96849.62;127963;1093;25696;-85
2021/08/09 00:45:30;;;;;;;1.25;0.80;;;;;;;16.50;85.82;96850.39;128014;1093;31634;-85
2021/08/09 00:48:03;;;;;;;0.78;0.60;;;;;;;16.49;85.91;96832.76;128109;1093;25503;-85
2021/08/09 00:50:35;;;;;;;0.90;0.70;;;;;;;16.53;86.10;96857.01;128130;1092;55599;-85
2021/08/09 00:53:06;;;;;;;0.75;0.45;;;;;;;16.53;86.22;96868.50;128116;1093;35731;-84
2021/08/09 00:55:42;;;;;;;1.10;0.68;;;;;;;16.54;86.13;96870.08;128080;1093;76866;-85
2021/08/09 00:58:14;;;;;;;0.90;0.50;;;;;;;16.53;86.09;96862.36;128062;1093;52193;-84
2021/08/09 01:00:45;;;;;;;0.83;0.68;;;;;;;16.49;86.12;96864.88;127984;1090;53247;-85
2021/08/09 01:03:17;;;;;;;0.90;0.70;;;;;;;16.45;86.16;96863.89;128055;1093;26748;-84
2021/08/09 01:05:50;;;;;;;0.93;0.63;;;;;;;16.48;85.96;96868.66;128096;1091;25491;-85
2021/08/09 01:08:34;;;;;;;0.58;0.50;;;;;;;16.57;86.06;96872.13;128061;1093;38695;-85
2021/08/09 01:11:20;;;;;;;1.90;0.88;;;;;;;16.56;85.69;96878.58;128099;1093;26259;-85
2021/08/09 01:14:00;;;;;;;0.60;0.60;;;;;;;16.48;85.89;96892.73;128035;1093;51154;-85
2021/08/09 01:16:37;;;;;;;2.10;0.80;;;;;;;16.36;86.18;96897.88;128102;1093;25641;-86
2021/08/09 01:19:22;;;;;;;2.15;0.70;;;;;;;16.24;86.69;96895.77;128171;1093;26242;-85
2021/08/09 01:21:59;;;;;;;0.78;0.70;;;;;;;16.20;86.95;96904.72;128037;1093;29182;-85
2021/08/09 01:24:40;;;;;;;0.98;0.80;;;;;;;16.20;87.08;96904.72;128033;1093;51087;-85
2021/08/09 01:27:18;;;;;;;0.70;0.70;;;;;;;16.18;86.97;96912.23;128085;1093;52126;-84
2021/08/09 01:29:50;;;;;;;0.70;0.50;;;;;;;16.18;87.16;96912.23;128097;1091;26803;-85
2021/08/09 01:32:23;;;;;;;1.70;0.68;;;;;;;16.21;87.13;96919.67;128093;1090;27341;-85
2021/08/09 01:34:57;;;;;;;1.10;0.68;;;;;;;16.26;87.01;96931.02;128118;1090;26224;-84
2021/08/09 01:37:32;;;;;;;1.00;0.65;;;;;;;16.32;86.98;96920.97;128077;1093;24319;-84
2021/08/09 01:40:04;;;;;;;1.33;0.80;;;;;;;16.38;86.71;96919.76;128166;1092;57926;-85
2021/08/09 01:42:37;;;;;;;1.10;0.70;;;;;;;16.40;86.37;96925.59;128137;1092;25458;-85
2021/08/09 01:45:10;;;;;;;1.28;1.00;;;;;;;16.40;86.11;96933.61;128090;1093;35541;-83
2021/08/09 01:47:42;;;;;;;1.08;0.90;;;;;;;16.41;86.37;96940.55;128046;1093;30114;-85
2021/08/09 01:50:16;;;;;;;1.25;0.95;;;;;;;16.41;86.16;96927.16;128049;1093;28282;-84
2021/08/09 01:52:48;;;;;;;0.73;0.58;;;;;;;16.48;86.25;96926.74;128085;1093;45632;-85
2021/08/09 01:55:22;;;;;;;0.95;0.78;;;;;;;16.47;85.99;96930.48;128142;1093;25380;-84
2021/08/09 01:57:53;;;;;;;1.68;0.90;;;;;;;16.45;85.72;96938.83;128169;1093;26261;-85
2021/08/09 02:00:24;;;;;;;0.73;0.60;;;;;;;16.40;85.93;96948.88;128122;1093;28312;-85
2021/08/09 02:02:56;;;;;;;1.38;0.80;;;;;;;16.34;86.00;96958.94;128104;1092;25036;-85
2021/08/09 02:05:27;;;;;;;2.07;0.83;;;;;;;16.30;86.06;96958.73;128066;1093;57988;-84
2021/08/09 02:07:59;;;;;;;1.25;0.98;;;;;;;16.30;85.69;96963.30;128098;1093;24678;-85
2021/08/09 02:10:32;;;;;;;1.83;1.05;;;;;;;16.24;85.87;96968.00;128091;1093;46016;-85
2021/08/09 02:13:10;;;;;;;1.90;0.85;;;;;;;16.17;85.46;96985.56;128126;1092;25874;-84
2021/08/09 02:15:51;;;;;;;1.65;1.10;;;;;;;16.03;85.64;96990.97;128098;1093;47867;-84
2021/08/09 02:18:26;;;;;;;1.95;0.88;;;;;;;15.93;85.68;96996.58;128057;1093;26381;-86
2021/08/09 02:21:03;;;;;;;1.83;0.90;;;;;;;15.88;86.27;96994.79;128028;1092;44475;-84
2021/08/09 02:23:42;;;;;;;1.40;0.93;;;;;;;15.89;86.53;97000.92;128188;1092;25491;-84
2021/08/09 02:26:16;;;;;;;1.45;0.95;;;;;;;15.95;86.74;97008.55;128054;1093;29163;-85
2021/08/09 02:28:51;;;;;;;1.38;0.90;;;;;;;15.99;86.83;97006.84;128085;1093;53603;-85
2021/08/09 02:31:24;;;;;;;1.53;0.68;;;;;;;16.02;87.07;96998.20;128072;1090;73891;-85
2021/08/09 02:33:57;;;;;;;2.85;1.10;;;;;;;15.97;86.84;97014.38;128114;1092;28274;-84
2021/08/09 02:36:29;;;;;;;1.53;0.53;;;;;;;15.92;86.75;97022.52;128017;1092;71727;-84
2021/08/09 02:39:01;;;;;;;2.48;0.98;;;;;;;15.85;87.11;97027.48;128042;1090;54441;-84
2021/08/09 02:41:33;;;;;;;2.13;0.80;;;;;;;15.84;87.14;97031.25;128090;1093;42128;-83
2021/08/09 02:44:04;;;;;;;2.35;0.88;;;;;;;15.85;87.17;97038.17;128067;1093;27943;-84
2021/08/09 02:46:36;;;;;;;1.40;0.70;;;;;;;15.80;87.28;97035.63;128165;1093;25654;-84
2021/08/09 02:49:08;;;;;;;1.10;0.80;;;;;;;15.71;87.54;97026.73;128145;1093;24252;-83
2021/08/09 02:51:39;;;;;;;1.20;0.90;;;;;;;15.64;87.58;97042.40;128013;1093;76402;-83
2021/08/09 02:54:11;;;;;;;2.45;0.90;;;;;;;15.60;87.83;97038.72;128085;1092;27119;-83
2021/08/09 02:56:43;;;;;;;2.63;0.95;;;;;;;15.56;88.31;97043.06;128053;1093;46400;-84
2021/08/09 02:59:15;;;;;;;1.18;0.80;;;;;;;15.54;88.23;97042.57;128093;1093;37684;-83
2021/08/09 03:01:46;;;;;;;1.13;0.93;;;;;;;15.56;88.45;97049.20;128034;1093;57767;-83
2021/08/09 03:04:23;;;;;;;1.90;0.90;;;;;;;15.53;88.39;97038.31;128062;1093;53678;-83
2021/08/09 03:06:57;;;;;;;1.90;0.98;;;;;;;15.51;88.57;97049.31;128024;1093;57082;-84
2021/08/09 03:09:28;;;;;;;1.73;0.95;;;;;;;15.55;88.39;97047.61;128110;1091;39128;-84
2021/08/09 03:12:09;;;;;;;2.15;0.83;;;;;;;15.59;88.23;97042.45;128099;1093;23307;-83
2021/08/09 03:14:40;;;;;;;2.63;0.90;;;;;;;15.56;88.18;97048.41;128044;1093;51923;-83
2021/08/09 03:17:12;;;;;;;1.03;0.70;;;;;;;15.54;87.96;97043.36;128094;1093;24431;-84
2021/08/09 03:19:43;;;;;;;2.03;0.90;;;;;;;15.56;88.25;97040.39;128051;1092;46084;-83
2021/08/09 03:22:14;;;;;;;1.45;0.90;;;;;;;15.58;88.02;97043.55;128077;1093;41875;-84
2021/08/09 03:24:45;;;;;;;1.15;0.78;;;;;;;15.60;87.99;97038.72;128060;1093;49104;-84
2021/08/09 03:27:17;;;;;;;1.40;0.80;;;;;;;15.62;87.96;97044.55;128032;1093;56687;-84
2021/08/09 03:29:48;;;;;;;1.10;0.73;;;;;;;15.63;87.84;97044.28;128029;1093;55075;-84
2021/08/09 03:32:19;;;;;;;1.50;1.03;;;;;;;15.62;87.70;97040.03;128038;1093;44137;-83
2021/08/09 03:34:50;;;;;;;1.10;0.80;;;;;;;15.67;87.79;97037.23;128000;1093;69772;-84
2021/08/09 03:37:22;;;;;;;2.38;1.00;;;;;;;15.69;87.58;97042.28;128106;1092;27996;-84
2021/08/09 03:39:53;;;;;;;1.15;0.70;;;;;;;15.74;87.46;97050.17;128065;1090;27001;-85
2021/08/09 03:42:24;;;;;;;1.30;0.60;;;;;;;15.72;87.45;97063.05;128068;1093;55103;-84
2021/08/09 03:44:56;;;;;;;1.40;0.68;;;;;;;15.64;87.48;97061.11;128035;1093;63347;-84
2021/08/09 03:47:27;;;;;;;1.78;0.93;;;;;;;15.61;87.60;97064.35;128059;1093;41357;-84
2021/08/09 03:49:58;;;;;;;1.78;0.93;;;;;;;15.60;87.58;97068.12;128030;1093;54573;-83
2021/08/09 03:52:29;;;;;;;2.95;0.90;;;;;;;15.62;87.62;97058.73;128125;1090;25026;-84
2021/08/09 03:55:01;;;;;;;1.50;0.90;;;;;;;15.64;87.45;97061.11;128087;1093;37244;-83
2021/08/09 03:57:32;;;;;;;1.33;0.80;;;;;;;15.65;87.19;97054.66;128055;1092;32852;-84
2021/08/09 04:00:04;;;;;;;1.03;0.70;;;;;;;15.63;87.40;97046.16;128073;1091;33766;-84
2021/08/09 04:02:37;;;;;;;2.13;1.03;;;;;;;15.68;87.14;97054.06;128100;1092;54962;-84
2021/08/09 04:05:10;;;;;;;1.10;0.70;;;;;;;15.73;87.32;97053.95;128072;1093;32334;-84
2021/08/09 04:07:41;;;;;;;1.53;0.68;;;;;;;15.71;87.02;97056.92;127992;1093;29126;-84
2021/08/09 04:10:13;;;;;;;1.33;0.70;;;;;;;15.68;87.01;97062.08;128022;1092;44814;-84
2021/08/09 04:12:44;;;;;;;1.00;0.70;;;;;;;15.69;87.12;97050.30;128013;1092;27054;-84
2021/08/09 04:15:16;;;;;;;1.17;0.70;;;;;;;15.72;86.80;97049.69;127964;1093;25890;-85
2021/08/09 04:17:47;;;;;;;1.43;0.85;;;;;;;15.81;87.07;97052.45;128016;1090;51820;-84
2021/08/09 04:20:18;;;;;;;1.33;1.00;;;;;;;15.85;87.03;97056.89;128034;1093;33638;-84
2021/08/09 04:22:49;;;;;;;0.73;0.73;;;;;;;15.88;86.84;97056.28;128009;1092;26873;-84
2021/08/09 04:25:21;;;;;;;1.43;1.00;;;;;;;15.88;86.76;97060.84;128022;1093;24875;-84
2021/08/09 04:27:52;;;;;;;2.35;0.70;;;;;;;15.93;86.82;97066.89;128013;1091;38250;-85
2021/08/09 04:30:24;;;;;;;1.88;1.08;;;;;;;16.08;86.85;97075.66;128011;1093;27077;-84
2021/08/09 04:32:55;;;;;;;1.35;1.20;;;;;;;16.16;86.94;97072.25;127978;1093;53241;-85
2021/08/09 04:38:39;;;;;;;1.30;0.85;;;;;;;16.72;86.81;97070.95;128031;1093;29704;-86
2021/08/09 04:41:12;;;;;;;1.43;0.90;;;;;;;17.10;86.59;97068.64;128035;1092;37549;-85
2021/08/09 04:43:43;;;;;;;1.70;0.90;;;;;;;17.56;85.59;97070.84;127972;1093;41122;-85
2021/08/09 04:46:15;;;;;;;1.00;0.60;;;;;;;19.08;85.60;97078.76;127950;1093;28599;-85
2021/08/09 04:48:46;;;;;;;1.80;0.65;;;;;;;21.09;84.43;97068.95;128009;1093;24610;-84
2021/08/09 04:51:17;;;;;;;0.85;0.53;;;;;;;22.87;79.32;97079.75;128021;1093;23743;-86
2021/08/09 04:53:48;;;;;;;0.68;0.60;;;;;;;24.23;75.91;97088.05;127951;1091;26350;-85
2021/08/09 04:56:19;;;;;;;0.95;0.45;;;;;;;25.20;70.78;97077.16;127976;1092;27135;-85
2021/08/09 04:58:51;;;;;;;0.43;0.30;;;;;;;26.37;71.09;97074.66;127998;1090;53256;-83
2021/08/09 05:01:22;;;;;;;0.63;0.48;;;;;;;27.89;69.06;97077.30;128033;1093;26385;-84
2021/08/09 05:03:53;;;;;;;0.50;0.45;;;;;;;29.28;64.94;97073.17;128029;1092;26389;-85
2021/08/09 05:06:25;;;;;;;1.10;0.60;;;;;;;29.88;60.98;97074.33;127965;1093;30253;-84
2021/08/09 05:08:57;;;;;;;0.88;0.70;;;;;;;30.39;58.13;97065.59;128052;1093;24797;-85
2021/08/09 05:11:28;;;;;;;1.30;0.60;;;;;;;30.80;56.44;97074.03;128028;1093;27970;-83
2021/08/09 05:13:59;;;;;;;0.60;0.30;;;;;;;31.25;54.84;97077.70;127981;1093;28378;-84
2021/08/09 05:16:33;;;;;;;0.83;0.35;;;;;;;31.73;51.89;97067.91;127990;1090;26632;-84
2021/08/09 05:19:05;;;;;;;0.63;0.50;;;;;;;31.94;51.05;97069.67;128062;1093;26267;-84
2021/08/09 05:21:38;;;;;;;1.40;0.60;;;;;;;32.45;50.22;97074.23;128270;1092;26482;-83
2021/08/09 05:24:09;;;;;;;1.13;0.55;;;;;;;32.96;47.87;97067.70;128064;1093;24663;-83
2021/08/09 05:26:40;;;;;;;0.50;0.50;;;;;;;33.30;48.22;97061.30;128041;1093;28318;-83
2021/08/09 05:29:12;;;;;;;0.78;0.50;;;;;;;33.91;47.60;97069.34;127969;1093;28561;-84
2021/08/09 05:31:43;;;;;;;3.55;1.03;;;;;;;34.36;45.35;97064.20;127996;1093;25181;-83
2021/08/09 05:34:14;;;;;;;0.65;0.50;;;;;;;34.80;45.29;97065.63;128024;1091;27877;-84
2021/08/09 05:36:45;;;;;;;0.73;0.60;;;;;;;35.17;43.44;97063.63;128020;1093;28163;-83
2021/08/09 05:39:17;;;;;;;1.18;0.60;;;;;;;35.30;42.96;97070.00;128185;1092;31691;-85
2021/08/09 05:41:48;;;;;;;0.50;0.50;;;;;;;35.78;41.39;97071.22;126762;1090;1208586;-84
2021/08/09 05:44:19;;;;;;;0.38;0.38;;;;;;;35.98;40.70;97074.64;128190;1093;26762;-84
2021/08/09 05:46:51;;;;;;;1.88;0.55;;;;;;;36.65;40.55;97071.23;128203;1092;26243;-84
2021/08/09 05:49:22;;;;;;;0.65;0.50;;;;;;;36.91;39.83;97066.54;128044;1093;26594;-84
2021/08/09 05:51:53;;;;;;;1.58;0.30;;;;;;;37.33;38.94;97071.97;127988;1093;27270;-84
2021/08/09 05:54:24;;;;;;;0.75;0.40;;;;;;;37.65;38.32;97066.14;127965;1093;31849;-84
2021/08/09 05:56:56;;;;;;;0.50;0.43;;;;;;;37.15;36.32;97070.50;127922;1092;29423;-84
2021/08/09 05:59:28;;;;;;;1.18;0.80;;;;;;;37.15;36.94;97070.50;127980;1091;27246;-84
2021/08/09 06:01:59;;;;;;;0.70;0.50;;;;;;;37.19;36.59;97069.63;127919;1093;36234;-83
2021/08/09 06:04:30;;;;;;;0.65;0.40;;;;;;;37.55;35.99;97069.27;127987;1093;27696;-83
2021/08/09 06:07:01;;;;;;;0.50;0.50;;;;;;;37.67;35.54;97069.23;128009;1093;28286;-83
2021/08/09 06:09:34;;;;;;;0.60;0.55;;;;;;;38.16;35.10;97063.23;127939;1090;33237;-84
2021/08/09 06:12:06;;;;;;;0.70;0.68;;;;;;;38.17;33.64;97058.47;128042;1093;26346;-84
2021/08/09 06:14:38;;;;;;;0.80;0.60;;;;;;;38.23;33.69;97062.22;128009;1092;26012;-84
2021/08/09 06:17:12;;;;;;;1.18;0.50;;;;;;;38.93;33.90;97062.80;127976;1093;28943;-84
2021/08/09 06:19:43;;;;;;;0.95;0.88;;;;;;;39.00;32.72;97063.30;127948;1093;28118;-84
2021/08/09 06:22:14;;;;;;;0.78;0.60;;;;;;;38.98;31.46;97067.73;127943;1093;27643;-84
2021/08/09 06:24:46;;;;;;;1.00;0.70;;;;;;;38.23;31.65;97056.67;127932;1093;55083;-84
2021/08/09 06:27:17;;;;;;;0.53;0.53;;;;;;;38.22;31.87;97058.67;127954;1093;30596;-84
2021/08/09 06:29:49;;;;;;;0.83;0.73;;;;;;;39.02;32.53;97063.61;128006;1093;30316;-84
2021/08/09 06:32:20;;;;;;;0.80;0.40;;;;;;;39.52;31.48;97071.94;127936;1092;25629;-85
2021/08/09 06:34:51;;;;;;;0.70;0.40;;;;;;;39.57;31.16;97068.61;127949;1091;30236;-84
2021/08/09 06:37:23;;;;;;;1.15;0.65;;;;;;;39.99;30.82;97075.15;127999;1093;28565;-85
2021/08/09 06:39:54;;;;;;;0.80;0.50;;;;;;;40.61;31.16;97074.78;127977;1093;26965;-84
2021/08/09 06:42:25;;;;;;;1.00;0.60;;;;;;;41.31;30.31;97079.52;127941;1093;28271;-84
2021/08/09 06:44:56;;;;;;;0.90;0.50;;;;;;;41.35;29.11;97074.54;127940;1093;29399;-84
2021/08/09 06:47:36;;;;;;;1.47;0.57;;;;;;;41.78;29.05;97081.56;127945;1093;28706;-84
2021/08/09 06:50:10;;;;;;;0.40;0.35;;;;;;;40.96;28.59;97079.17;127994;1093;31642;-83
2021/08/09 06:52:41;;;;;;;0.50;0.40;;;;;;;41.19;28.03;97076.45;127924;1092;34329;-84
2021/08/09 06:55:13;;;;;;;0.40;0.40;;;;;;;41.02;28.38;97083.64;127975;1093;28895;-84
2021/08/09 06:57:44;;;;;;;1.58;0.60;;;;;;;41.56;28.73;97079.06;127885;1093;30932;-83
2021/08/09 07:00:16;;;;;;;0.40;0.40;;;;;;;41.44;26.11;97089.19;127990;1093;36884;-83
2021/08/09 07:02:47;;;;;;;0.50;0.50;;;;;;;40.52;25.05;97068.46;127905;1092;32700;-83
2021/08/09 07:05:19;;;;;;;0.90;0.73;;;;;;;39.86;27.02;97074.50;127969;1093;36095;-83
2021/08/09 07:07:53;;;;;;;1.58;0.70;;;;;;;40.17;26.08;97074.36;127927;1093;30890;-83
2021/08/09 07:10:24;;;;;;;0.85;0.50;;;;;;;40.25;26.97;97081.13;127920;1093;36053;-83
2021/08/09 07:12:56;;;;;;;1.20;0.58;;;;;;;40.00;26.03;97082.24;127947;1093;29104;-83
2021/08/09 07:15:27;;;;;;;1.13;0.40;;;;;;;39.94;26.85;97083.28;127920;1092;29663;-84
2021/08/09 07:17:59;;;;;;;2.63;0.50;;;;;;;40.28;26.61;97094.11;127893;1092;31719;-83
2021/08/09 07:20:30;;;;;;;0.50;0.48;;;;;;;41.58;27.29;97093.28;127951;1093;28783;-84
2021/08/09 07:23:02;;;;;;;1.43;0.50;;;;;;;42.17;24.93;97090.72;127959;1091;28274;-83
2021/08/09 07:25:33;;;;;;;0.88;0.63;;;;;;;41.92;25.42;97100.33;127898;1092;31395;-83
2021/08/09 07:28:05;;;;;;;0.90;0.65;;;;;;;41.55;23.86;97097.02;127947;1093;32070;-84
2021/08/09 07:30:36;;;;;;;0.70;0.60;;;;;;;40.98;24.39;97080.27;127975;1092;35236;-84
2021/08/09 07:33:07;;;;;;;1.03;0.60;;;;;;;40.81;25.31;97088.15;128033;1093;52484;-84
2021/08/09 07:35:39;;;;;;;0.73;0.60;;;;;;;41.95;23.68;97087.46;128013;1091;33051;-84
2021/08/09 07:38:11;;;;;;;0.78;0.60;;;;;;;41.40;24.65;97082.26;127921;1093;30175;-83
2021/08/09 07:40:42;;;;;;;0.95;0.63;;;;;;;42.82;24.74;97086.08;127938;1092;36336;-84
2021/08/09 07:43:13;;;;;;;0.93;0.60;;;;;;;42.99;23.07;97074.45;127942;1093;27305;-84
2021/08/09 07:45:45;;;;;;;0.80;0.60;;;;;;;40.40;21.80;97086.88;127959;1093;26020;-84
2021/08/09 07:48:16;;;;;;;1.58;0.60;;;;;;;39.21;26.23;97083.89;127949;1093;28563;-83
2021/08/09 07:50:47;;;;;;;0.70;0.60;;;;;;;41.19;26.27;97084.80;127944;1090;33393;-83
2021/08/09 07:53:18;;;;;;;0.95;0.68;;;;;;;42.70;24.38;97094.74;127982;1093;26215;-83
2021/08/09 07:55:50;;;;;;;0.50;0.50;;;;;;;43.29;24.04;97084.28;127930;1092;30904;-83
2021/08/09 07:58:21;;;;;;;1.10;0.40;;;;;;;42.55;22.53;97094.74;127968;1092;25551;-82
2021/08/09 08:00:53;;;;;;;1.00;0.50;;;;;;;40.31;23.33;97089.63;127956;1091;26434;-83
2021/08/09 08:03:24;;;;;;;1.55;0.60;;;;;;;37.37;25.13;97103.82;128023;1093;26639;-84
2021/08/09 08:05:56;;;;;;;1.18;0.48;;;;;;;34.91;27.25;97097.68;127979;1091;27308;-83
2021/08/09 08:08:27;;;;;;;0.73;0.50;;;;;;;33.53;29.22;97097.09;127981;1093;28007;-83
2021/08/09 08:10:59;;;;;;;0.73;0.40;;;;;;;35.21;28.58;97096.64;128006;1093;26855;-82
2021/08/09 08:13:30;;;;;;;0.88;0.73;;;;;;;36.17;28.77;97103.31;127970;1092;28396;-83
2021/08/09 08:16:02;;;;;;;2.07;0.50;;;;;;;37.38;26.77;97099.83;127978;1093;28115;-83
2021/08/09 08:18:33;;;;;;;1.05;0.78;;;;;;;37.58;27.18;97104.33;127953;1093;29660;-82
2021/08/09 08:21:04;;;;;;;0.88;0.50;;;;;;;37.02;27.06;97108.45;128041;1092;25190;-82
2021/08/09 08:23:36;;;;;;;1.50;0.60;;;;;;;36.86;26.80;97097.47;127979;1093;29541;-82
2021/08/09 08:26:07;;;;;;;0.85;0.70;;;;;;;35.47;28.22;97105.88;128059;1090;26949;-83
2021/08/09 08:28:38;;;;;;;0.83;0.40;;;;;;;35.51;28.45;97101.84;128069;1093;26463;-83
2021/08/09 08:31:10;;;;;;;1.53;0.65;;;;;;;34.72;29.53;97104.75;127981;1093;25717;-83
2021/08/09 08:33:41;;;;;;;0.70;0.70;;;;;;;33.12;29.59;97110.27;127951;1090;55799;-83
2021/08/09 08:36:12;;;;;;;0.93;0.70;;;;;;;30.88;31.12;97102.95;127924;1090;26898;-83
2021/08/09 08:38:44;;;;;;;0.90;0.60;;;;;;;29.14;33.37;97103.20;127971;1092;28958;-84
2021/08/09 08:41:18;;;;;;;1.15;0.70;;;;;;;27.80;35.80;97100.20;127978;1093;29810;-82
2021/08/09 08:43:51;;;;;;;1.68;0.75;;;;;;;26.97;37.44;97099.81;127936;1093;29359;-83
2021/08/09 08:46:23;;;;;;;1.18;0.70;;;;;;;26.69;39.34;97094.84;127963;1093;29905;-83
2021/08/09 08:48:59;;;;;;;4.58;0.50;;;;;;;26.77;40.23;97101.95;127978;1092;26268;-83
2021/08/09 08:51:30;;;;;;;1.83;0.95;;;;;;;27.00;40.17;97099.06;128022;1092;27660;-83
2021/08/09 08:54:02;;;;;;;1.95;0.60;;;;;;;27.12;40.29;97098.83;127971;1092;29198;-84
2021/08/09 08:56:36;;;;;;;1.45;0.63;;;;;;;27.11;40.44;97102.70;127939;1093;79193;-83
2021/08/09 08:59:13;;;;;;;1.10;0.70;;;;;;;27.18;40.82;97102.01;128031;1092;29247;-83
2021/08/09 09:01:46;;;;;;;1.00;0.73;;;;;;;27.18;40.48;97097.34;127974;1093;28133;-83
2021/08/09 09:04:25;;;;;;;1.43;0.50;;;;;;;27.09;40.40;97101.52;127987;1092;27889;-84
2021/08/09 09:07:02;;;;;;;1.23;0.78;;;;;;;26.97;40.88;97099.81;127919;1093;28479;-83
2021/08/09 09:09:36;;;;;;;0.78;0.60;;;;;;;26.83;41.00;97092.28;127963;1090;73697;-83
2021/08/09 09:12:24;;;;;;;0.95;0.60;;;;;;;26.72;40.80;97090.59;128026;1092;27175;-83
2021/08/09 09:15:05;;;;;;;0.73;0.55;;;;;;;26.52;41.50;97088.05;127936;1092;30987;-84
2021/08/09 09:17:38;;;;;;;0.95;0.60;;;;;;;26.11;41.34;97099.91;128034;1093;27065;-84
2021/08/09 09:20:26;;;;;;;0.88;0.75;;;;;;;26.09;42.18;97102.22;128014;1090;27151;-82
2021/08/09 09:23:14;;;;;;;0.70;0.65;;;;;;;26.19;41.72;97096.16;127929;1093;32788;-83
2021/08/09 09:25:47;;;;;;;0.80;0.53;;;;;;;26.30;42.07;97094.34;127997;1092;26542;-83
2021/08/09 09:28:28;;;;;;;0.70;0.53;;;;;;;26.41;42.86;97098.01;127944;1093;28421;-83
2021/08/09 09:31:03;;;;;;;2.38;0.80;;;;;;;26.45;42.70;97103.48;128011;1093;30717;-83
2021/08/09 09:33:35;;;;;;;0.65;0.58;;;;;;;26.18;43.70;97105.43;127996;1092;28754;-82
2021/08/09 09:36:07;;;;;;;1.60;0.73;;;;;;;26.14;44.67;97099.17;128061;1093;31277;-83
2021/08/09 09:38:45;;;;;;;0.80;0.70;;;;;;;26.45;45.12;97100.77;128081;1093;29881;-82
2021/08/09 09:41:17;;;;;;;0.58;0.58;;;;;;;26.82;45.15;97101.60;128063;1093;28068;-82
2021/08/09 09:43:49;;;;;;;0.70;0.70;;;;;;;27.08;44.90;97106.19;128177;1093;31705;-82
2021/08/09 09:46:27;;;;;;;1.10;0.60;;;;;;;27.26;44.50;97102.84;127956;1093;26515;-82
2021/08/09 09:49:05;;;;;;;2.15;0.75;;;;;;;27.37;43.92;97109.95;127944;1093;45411;-82
2021/08/09 09:51:45;;;;;;;0.90;0.60;;;;;;;27.46;44.16;97106.92;128024;1093;27514;-83
2021/08/09 09:54:16;;;;;;;1.48;0.58;;;;;;;27.52;43.71;97113.58;127988;1093;27989;-82
2021/08/09 09:56:48;;;;;;;0.98;0.63;;;;;;;27.50;43.87;97113.17;127980;1093;29257;-83
2021/08/09 09:59:20;;;;;;;0.87;0.67;;;;;;;27.60;44.48;97111.71;127973;1092;28312;-82
2021/08/09 10:01:52;;;;;;;1.80;0.90;;;;;;;27.58;43.44;97117.51;127999;1093;27352;-83
2021/08/09 10:04:25;;;;;;;1.00;0.80;;;;;;;27.48;44.34;97119.00;128002;1092;27504;-83
2021/08/09 10:06:57;;;;;;;1.03;0.75;;;;;;;27.57;44.08;97112.44;127969;1092;23354;-83
2021/08/09 10:09:30;;;;;;;1.07;0.70;;;;;;;27.23;43.61;97120.71;127972;1093;31167;-81
2021/08/09 10:12:02;;;;;;;0.85;0.65;;;;;;;27.09;44.38;97118.63;128017;1093;27371;-82
2021/08/09 10:14:36;;;;;;;1.75;0.80;;;;;;;27.01;44.36;97118.92;127908;1092;30320;-84
2021/08/09 10:17:08;;;;;;;0.80;0.63;;;;;;;26.95;44.79;97120.39;128024;1093;30878;-83
2021/08/09 10:19:41;;;;;;;1.55;0.70;;;;;;;27.05;44.34;97120.55;127911;1090;29568;-82
2021/08/09 10:22:14;;;;;;;1.95;1.00;;;;;;;27.17;44.28;97125.73;127936;1093;29211;-83
2021/08/09 10:24:46;;;;;;;2.18;0.60;;;;;;;27.30;44.64;97125.43;127896;1093;55131;-83
2021/08/09 10:27:18;;;;;;;1.65;0.85;;;;;;;27.33;43.32;97124.70;127945;1093;26998;-82
2021/08/09 10:30:13;;;;;;;1.63;0.98;;;;;;;27.04;43.48;97121.70;127910;1092;32173;-82
2021/08/09 10:32:51;;;;;;;2.30;0.90;;;;;;;26.66;44.63;97119.30;127934;1092;28371;-83
2021/08/09 10:36:05;;;;;;;0.90;0.65;;;;;;;26.79;44.26;97115.17;127995;1093;24048;-82
2021/08/09 10:38:44;;;;;;;1.05;0.88;;;;;;;26.27;44.10;97116.83;128042;1093;25841;-82
2021/08/09 10:41:37;;;;;;;1.00;0.85;;;;;;;26.19;45.20;97117.90;128024;1093;26363;-83
2021/08/09 10:44:28;;;;;;;0.85;0.70;;;;;;;26.28;44.50;97124.61;128034;1093;32632;-82
2021/08/09 10:47:00;;;;;;;0.80;0.63;;;;;;;26.23;44.28;97116.78;127910;1092;31530;-83
2021/08/09 10:49:57;;;;;;;2.05;0.90;;;;;;;26.16;44.50;97113.95;127973;1093;27718;-82
2021/08/09 10:52:40;;;;;;;1.48;0.88;;;;;;;26.13;44.29;97119.34;127979;1093;28080;-82
2021/08/09 10:55:42;;;;;;;1.10;0.93;;;;;;;26.10;44.19;97109.22;128002;1093;26231;-82
2021/08/09 10:58:53;;;;;;;1.05;0.78;;;;;;;25.63;45.11;97108.51;127955;1091;25205;-82
2021/08/09 11:01:27;;;;;;;1.80;1.23;;;;;;;24.97;45.24;97115.09;127971;1093;25982;-82
2021/08/09 11:04:18;;;;;;;1.08;0.70;;;;;;;24.77;47.07;97122.48;127927;1091;26200;-83
2021/08/09 11:06:55;;;;;;;1.63;0.90;;;;;;;24.54;47.16;97119.69;127920;1093;30730;-83
2021/08/09 11:09:47;;;;;;;1.38;0.88;;;;;;;24.51;48.67;97114.98;127950;1093;35296;-83
2021/08/09 11:12:28;;;;;;;1.15;0.90;;;;;;;24.54;49.65;97113.48;127950;1093;32272;-84
2021/08/09 11:15:22;;;;;;;1.90;1.00;;;;;;;24.62;48.19;97120.59;127955;1092;33386;-82
2021/08/09 11:18:01;;;;;;;1.00;0.90;;;;;;;24.45;49.54;97121.03;127942;1093;25820;-83
2021/08/09 11:20:35;;;;;;;0.90;0.90;;;;;;;24.63;49.05;97126.80;127950;1093;27283;-83
2021/08/09 11:23:10;;;;;;;1.08;0.90;;;;;;;24.48;48.67;97125.73;128017;1093;27184;-83
2021/08/09 11:25:45;;;;;;;1.28;0.93;;;;;;;24.42;49.55;97122.53;128004;1093;25094;-83
2021/08/09 11:28:19;;;;;;;1.55;1.10;;;;;;;24.67;49.82;97128.47;127965;1093;28546;-83
2021/08/09 11:30:53;;;;;;;1.60;1.10;;;;;;;24.67;49.58;97131.18;127974;1090;26236;-82
2021/08/09 11:33:30;;;;;;;2.28;1.03;;;;;;;24.88;50.25;97120.73;127922;1093;26533;-82
2021/08/09 11:36:03;;;;;;;1.13;0.70;;;;;;;25.12;49.66;97127.02;127958;1093;27434;-83
2021/08/09 11:38:47;;;;;;;1.85;0.85;;;;;;;25.08;49.10;97123.46;128029;1093;29341;-83
2021/08/09 11:41:20;;;;;;;1.48;0.90;;;;;;;24.82;49.45;97124.89;127994;1093;26777;-83
2021/08/09 11:44:04;;;;;;;1.98;0.93;;;;;;;24.43;49.10;97129.52;127871;1092;27837;-83
2021/08/09 11:46:44;;;;;;;1.75;1.03;;;;;;;24.33;51.15;97129.28;128011;1093;27121;-83
2021/08/09 11:49:14;;;;;;;;;;;;;;;24.64;51.70;97125.69;127982;1092;27364;-82
2021/08/09 11:51:48;;;;;;;1.73;1.10;;;;;;;24.32;50.57;97122.30;127940;1093;27237;-82
2021/08/09 11:54:20;;;;;;;2.35;1.35;;;;;;;24.17;52.12;97129.30;127958;1093;28310;-83
2021/08/09 11:56:56;;;;;;;1.75;1.35;;;;;;;24.24;52.09;97116.71;127986;1093;25428;-83
2021/08/09 11:59:28;;;;;;;4.28;1.20;;;;;;;24.40;51.85;97113.19;127951;1093;32537;-83